Time;durP1;ratioP1;P1;durP2;ratioP2;P2;SDS_P1;SDS_P2;PMS_P1;PMS_P2;Temp;Humidity;BMP_temperature;BMP_pressure;BME280_temperature;BME280_humidity;BME280_pressure;Samples;Min_cycle;Max_cycle;Signal;HPM_P1;HPM_P2
2021/01/02 00:00:45;;;;;;;3.33;1.40;;;;;;;;;;5035257;28;20040;-68
2021/01/02 00:03:18;;;;;;;2.73;1.67;;;;;;;;;;5034547;28;20187;-68
2021/01/02 00:05:48;;;;;;;5.93;1.83;;;;;;;;;;5034170;28;20403;-68
2021/01/02 00:08:15;;;;;;;3.60;1.83;;;;;;;;;;5034618;28;20119;-68
2021/01/02 00:10:52;;;;;;;3.83;1.80;;;;;;;;;;5035116;28;20104;-68
2021/01/02 00:13:37;;;;;;;3.70;1.60;;;;;;;;;;5034344;28;20017;-68
2021/01/02 00:16:06;;;;;;;2.53;1.40;;;;;;;;;;5033985;28;20060;-67
2021/01/02 00:18:41;;;;;;;4.50;1.67;;;;;;;;;;5035094;28;20133;-68
2021/01/02 00:21:20;;;;;;;3.63;1.63;;;;;;;;;;5035480;28;20382;-67
2021/01/02 00:24:04;;;;;;;2.53;1.53;;;;;;;;;;5034391;28;20426;-68
2021/01/02 00:26:43;;;;;;;2.93;1.40;;;;;;;;;;5034629;28;20032;-67
2021/01/02 00:29:14;;;;;;;3.87;1.60;;;;;;;;;;5034619;28;20080;-68
2021/01/02 00:31:56;;;;;;;3.57;1.90;;;;;;;;;;5033982;28;20037;-68
2021/01/02 00:34:42;;;;;;;3.53;1.80;;;;;;;;;;5033989;28;20025;-68
2021/01/02 00:37:14;;;;;;;1.50;1.20;;;;;;;;;;5033989;28;20029;-68
2021/01/02 00:39:58;;;;;;;3.70;1.50;;;;;;;;;;5034943;28;20025;-68
2021/01/02 00:42:26;;;;;;;5.63;1.20;;;;;;;;;;5034591;28;20485;-68
2021/01/02 00:44:52;;;;;;;5.97;1.70;;;;;;;;;;5034746;28;20025;-68
2021/01/02 00:47:19;;;;;;;3.67;1.40;;;;;;;;;;5032664;28;20471;-68
2021/01/02 00:49:45;;;;;;;2.17;1.00;;;;;;;;;;5031347;28;20112;-67
2021/01/02 00:52:13;;;;;;;4.27;1.40;;;;;;;;;;5031517;28;20124;-68
2021/01/02 00:54:51;;;;;;;4.10;1.47;;;;;;;;;;5033876;28;20029;-68
2021/01/02 00:57:41;;;;;;;2.60;1.37;;;;;;;;;;5033575;28;20029;-68
2021/01/02 01:00:08;;;;;;;1.77;1.10;;;;;;;;;;5033816;28;20029;-68
2021/01/02 01:02:46;;;;;;;4.03;1.30;;;;;;;;;;5034272;28;20393;-68
2021/01/02 01:05:20;;;;;;;2.37;1.43;;;;;;;;;;5033968;28;20379;-68
2021/01/02 01:07:51;;;;;;;2.77;1.40;;;;;;;;;;5035047;28;20648;-68
2021/01/02 01:10:20;;;;;;;4.43;1.53;;;;;;;;;;5034901;28;20510;-68
2021/01/02 01:12:47;;;;;;;3.77;1.40;;;;;;;;;;5034666;28;20553;-68
2021/01/02 01:15:13;;;;;;;2.90;1.10;;;;;;;;;;5034413;28;20049;-68
2021/01/02 01:17:46;;;;;;;3.27;1.60;;;;;;;;;;5033487;28;20038;-67
2021/01/02 01:20:12;;;;;;;;;;;;;;;;;;5033799;28;20102;-68
2021/01/02 01:22:42;;;;;;;4.60;1.70;;;;;;;;;;5032620;28;20444;-68
2021/01/02 01:25:15;;;;;;;4.00;1.30;;;;;;;;;;5034280;28;20104;-68
2021/01/02 01:27:54;;;;;;;4.00;1.50;;;;;;;;;;5034756;28;20385;-68
2021/01/02 01:30:24;;;;;;;3.97;1.47;;;;;;;;;;5034703;28;20370;-67
2021/01/02 01:33:00;;;;;;;3.03;1.40;;;;;;;;;;5034457;28;20029;-68
2021/01/02 01:35:27;;;;;;;3.60;1.10;;;;;;;;;;5033711;28;20034;-68
2021/01/02 01:37:55;;;;;;;3.20;1.13;;;;;;;;;;5033131;28;20029;-67
2021/01/02 01:40:23;;;;;;;2.73;1.20;;;;;;;;;;5032473;28;20025;-68
2021/01/02 01:43:01;;;;;;;2.97;0.80;;;;;;;;;;5032575;28;20673;-68
2021/01/02 01:45:39;;;;;;;5.00;1.00;;;;;;;;;;5033125;28;20032;-68
2021/01/02 01:48:12;;;;;;;6.57;1.30;;;;;;;;;;5032668;28;20065;-68
2021/01/02 01:51:00;;;;;;;2.27;0.90;;;;;;;;;;5032586;28;20471;-67
2021/01/02 01:53:34;;;;;;;3.07;0.97;;;;;;;;;;5032417;28;20044;-68
2021/01/02 01:56:14;;;;;;;4.50;1.00;;;;;;;;;;5032460;28;20104;-68
2021/01/02 01:58:43;;;;;;;4.53;1.20;;;;;;;;;;5030849;28;20052;-68
2021/01/02 02:01:10;;;;;;;4.43;1.20;;;;;;;;;;5029666;28;20034;-68
2021/01/02 02:03:59;;;;;;;3.30;1.13;;;;;;;;;;5029447;28;20071;-68
2021/01/02 02:06:31;;;;;;;3.00;0.70;;;;;;;;;;5033772;28;20030;-68
2021/01/02 02:08:59;;;;;;;4.70;0.85;;;;;;;;;;5033754;28;20030;-68
2021/01/02 02:11:34;;;;;;;2.47;0.77;;;;;;;;;;5033787;28;20095;-68
2021/01/02 02:14:01;;;;;;;2.77;0.60;;;;;;;;;;5032698;28;20037;-68
2021/01/02 02:16:35;;;;;;;3.03;1.00;;;;;;;;;;5031606;28;20033;-68
2021/01/02 02:19:07;;;;;;;2.83;1.10;;;;;;;;;;5031811;28;20449;-68
2021/01/02 02:21:33;;;;;;;3.07;0.97;;;;;;;;;;5032231;28;20052;-68
2021/01/02 02:24:01;;;;;;;5.60;1.50;;;;;;;;;;5033734;28;20045;-68
2021/01/02 02:26:36;;;;;;;3.57;1.63;;;;;;;;;;5033565;28;20041;-67
2021/01/02 02:29:17;;;;;;;4.83;1.70;;;;;;;;;;5032557;28;20105;-68
2021/01/02 02:31:44;;;;;;;4.90;1.70;;;;;;;;;;5032378;28;20028;-69
2021/01/02 02:34:11;;;;;;;5.07;1.60;;;;;;;;;;5032674;28;20434;-68
2021/01/02 02:36:37;;;;;;;2.93;1.30;;;;;;;;;;5032304;28;20420;-68
2021/01/02 02:39:07;;;;;;;4.00;1.40;;;;;;;;;;5031964;28;20029;-68
2021/01/02 02:41:53;;;;;;;4.20;1.30;;;;;;;;;;5032288;28;20393;-68
2021/01/02 02:44:25;;;;;;;4.17;1.50;;;;;;;;;;5031236;28;20029;-68
2021/01/02 02:46:52;;;;;;;3.33;1.13;;;;;;;;;;5031742;28;20025;-68
2021/01/02 02:49:25;;;;;;;4.87;1.30;;;;;;;;;;5031672;28;20025;-68
2021/01/02 02:52:10;;;;;;;4.75;1.20;;;;;;;;;;5031837;28;20038;-67
2021/01/02 02:54:36;;;;;;;6.33;1.20;;;;;;;;;;5031684;28;20025;-68
2021/01/02 02:57:03;;;;;;;4.43;1.27;;;;;;;;;;5031397;28;20036;-68
2021/01/02 02:59:29;;;;;;;3.10;1.50;;;;;;;;;;5031421;28;20032;-68
2021/01/02 03:01:55;;;;;;;2.43;1.13;;;;;;;;;;5031850;28;20033;-67
2021/01/02 03:04:21;;;;;;;4.77;1.77;;;;;;;;;;5031572;28;20078;-68
2021/01/02 03:06:47;;;;;;;4.67;1.60;;;;;;;;;;5031385;28;20023;-68
2021/01/02 03:09:14;;;;;;;5.63;2.00;;;;;;;;;;5031839;28;20042;-68
2021/01/02 03:11:43;;;;;;;5.63;1.70;;;;;;;;;;5031372;28;20108;-68
2021/01/02 03:14:09;;;;;;;4.77;1.30;;;;;;;;;;5031514;28;20025;-68
2021/01/02 03:16:35;;;;;;;7.63;1.40;;;;;;;;;;5032166;28;20390;-68
2021/01/02 03:19:03;;;;;;;4.37;1.30;;;;;;;;;;5031212;28;20488;-68
2021/01/02 03:21:30;;;;;;;2.87;1.30;;;;;;;;;;5032924;28;20113;-68
2021/01/02 03:23:58;;;;;;;7.00;1.80;;;;;;;;;;5032997;28;20044;-68
2021/01/02 03:26:24;;;;;;;3.80;1.53;;;;;;;;;;5032526;28;20370;-67
2021/01/02 03:28:50;;;;;;;4.23;1.77;;;;;;;;;;5031497;28;20542;-68
2021/01/02 03:31:17;;;;;;;8.60;2.10;;;;;;;;;;5031611;28;20025;-68
2021/01/02 03:33:43;;;;;;;4.70;1.73;;;;;;;;;;5030768;28;20479;-68
2021/01/02 03:36:09;;;;;;;3.30;1.70;;;;;;;;;;5031266;28;20026;-67
2021/01/02 03:38:36;;;;;;;7.03;1.53;;;;;;;;;;5032601;28;20576;-68
2021/01/02 03:41:02;;;;;;;3.83;1.20;;;;;;;;;;5032823;28;20030;-68
2021/01/02 03:43:28;;;;;;;3.77;1.30;;;;;;;;;;5032629;28;20120;-68
2021/01/02 03:45:55;;;;;;;1.67;0.77;;;;;;;;;;5032722;28;20022;-68
2021/01/02 03:48:21;;;;;;;1.80;0.93;;;;;;;;;;5032774;28;20033;-68
2021/01/02 03:50:47;;;;;;;4.17;1.10;;;;;;;;;;5032565;28;20422;-67
2021/01/02 03:53:13;;;;;;;2.00;0.90;;;;;;;;;;5032121;28;20395;-68
2021/01/02 03:55:40;;;;;;;2.30;0.80;;;;;;;;;;5032041;28;20026;-68
2021/01/02 03:58:06;;;;;;;2.33;0.60;;;;;;;;;;5032210;28;20552;-67
2021/01/02 04:00:32;;;;;;;2.60;0.77;;;;;;;;;;5034554;28;20056;-68
2021/01/02 04:02:59;;;;;;;2.03;0.80;;;;;;;;;;5034019;28;20057;-68
2021/01/02 04:05:25;;;;;;;3.67;0.90;;;;;;;;;;5034421;28;20047;-68
2021/01/02 04:07:51;;;;;;;4.50;1.00;;;;;;;;;;5034623;28;20470;-68
2021/01/02 04:10:17;;;;;;;3.70;1.10;;;;;;;;;;5035190;28;20058;-68
2021/01/02 04:12:43;;;;;;;3.80;1.37;;;;;;;;;;5034649;28;20507;-68
2021/01/02 04:15:10;;;;;;;2.47;0.70;;;;;;;;;;5034823;28;20056;-68
2021/01/02 04:17:36;;;;;;;4.53;1.20;;;;;;;;;;5033848;28;20037;-68
2021/01/02 04:20:04;;;;;;;3.03;1.07;;;;;;;;;;5034426;28;20068;-68
2021/01/02 04:22:32;;;;;;;2.97;1.27;;;;;;;;;;5034513;28;20088;-68
2021/01/02 04:24:58;;;;;;;3.07;1.07;;;;;;;;;;5035122;28;20022;-68
2021/01/02 04:27:24;;;;;;;4.07;1.00;;;;;;;;;;5034634;28;20091;-68
2021/01/02 04:29:50;;;;;;;2.97;0.97;;;;;;;;;;5033823;28;20025;-68
2021/01/02 04:32:16;;;;;;;1.63;0.90;;;;;;;;;;5034567;28;20064;-68
2021/01/02 04:34:42;;;;;;;1.97;0.60;;;;;;;;;;5034904;28;20022;-68
2021/01/02 04:37:08;;;;;;;1.73;0.60;;;;;;;;;;5034959;28;20022;-68
2021/01/02 04:39:34;;;;;;;2.97;0.57;;;;;;;;;;5034311;28;20108;-68
2021/01/02 04:42:00;;;;;;;4.47;1.07;;;;;;;;;;5034237;28;20061;-68
2021/01/02 04:44:27;;;;;;;2.50;0.90;;;;;;;;;;5033974;28;20036;-68
2021/01/02 04:46:54;;;;;;;2.07;0.80;;;;;;;;;;5033862;28;20113;-68
2021/01/02 04:49:21;;;;;;;1.13;0.77;;;;;;;;;;5034354;28;20033;-67
2021/01/02 04:51:47;;;;;;;3.33;0.80;;;;;;;;;;5035366;28;20053;-68
2021/01/02 04:54:13;;;;;;;3.03;0.60;;;;;;;;;;5035285;28;20030;-68
2021/01/02 04:56:39;;;;;;;2.97;0.77;;;;;;;;;;5035147;28;20022;-68
2021/01/02 04:59:11;;;;;;;3.03;0.90;;;;;;;;;;5034883;28;20022;-68
2021/01/02 05:01:38;;;;;;;2.35;0.98;;;;;;;;;;5035157;28;20529;-68
2021/01/02 05:04:04;;;;;;;2.90;0.90;;;;;;;;;;5035221;28;20151;-68
2021/01/02 05:06:30;;;;;;;3.53;1.10;;;;;;;;;;5035200;28;20021;-68
2021/01/02 05:08:56;;;;;;;3.23;0.87;;;;;;;;;;5035090;28;20032;-68
2021/01/02 05:11:24;;;;;;;3.13;0.90;;;;;;;;;;5033890;28;20068;-68
2021/01/02 05:13:59;;;;;;;3.70;0.77;;;;;;;;;;5034831;28;20025;-68
2021/01/02 05:16:35;;;;;;;4.53;1.53;;;;;;;;;;5033952;28;20029;-68
2021/01/02 05:19:11;;;;;;;2.90;0.83;;;;;;;;;;5033239;28;20041;-68
2021/01/02 05:21:38;;;;;;;1.67;0.73;;;;;;;;;;5032882;28;21975;-68
2021/01/02 05:24:07;;;;;;;3.20;1.20;;;;;;;;;;5033324;28;20025;-67
2021/01/02 05:26:33;;;;;;;2.43;0.90;;;;;;;;;;5034585;28;20024;-68
2021/01/02 05:29:13;;;;;;;2.27;1.17;;;;;;;;;;5034755;28;20508;-68
2021/01/02 05:31:39;;;;;;;5.97;1.17;;;;;;;;;;5034844;28;20044;-68
2021/01/02 05:34:06;;;;;;;2.70;1.20;;;;;;;;;;5034594;28;20025;-68
2021/01/02 05:36:32;;;;;;;3.23;1.30;;;;;;;;;;5034282;28;20079;-68
2021/01/02 05:38:59;;;;;;;4.07;1.43;;;;;;;;;;5033427;28;20032;-68
2021/01/02 05:41:25;;;;;;;2.87;1.10;;;;;;;;;;5033795;28;20029;-68
2021/01/02 05:43:51;;;;;;;3.27;0.90;;;;;;;;;;5033563;28;20555;-68
2021/01/02 05:46:21;;;;;;;1.13;0.87;;;;;;;;;;5033956;28;20418;-68
2021/01/02 05:48:47;;;;;;;3.00;1.00;;;;;;;;;;5034465;28;20034;-68
2021/01/02 05:51:13;;;;;;;3.87;1.50;;;;;;;;;;5033609;28;20030;-68
2021/01/02 05:53:39;;;;;;;2.37;0.97;;;;;;;;;;5033259;28;20049;-67
2021/01/02 05:56:09;;;;;;;2.47;1.30;;;;;;;;;;5033307;28;20474;-68
2021/01/02 05:58:36;;;;;;;1.53;0.97;;;;;;;;;;5031998;28;20045;-68
2021/01/02 06:01:05;;;;;;;2.30;0.97;;;;;;;;;;5034056;28;20032;-67
2021/01/02 06:03:31;;;;;;;2.13;1.10;;;;;;;;;;5033904;28;20038;-68
2021/01/02 06:06:02;;;;;;;3.77;1.10;;;;;;;;;;5033841;28;20025;-68
2021/01/02 06:08:29;;;;;;;3.57;1.00;;;;;;;;;;5033457;28;20065;-68
2021/01/02 06:10:59;;;;;;;1.37;0.77;;;;;;;;;;5032951;28;20022;-69
2021/01/02 06:13:26;;;;;;;1.43;1.13;;;;;;;;;;5032277;28;20075;-68
2021/01/02 06:15:53;;;;;;;2.33;1.00;;;;;;;;;;5033366;28;20025;-68
2021/01/02 06:18:19;;;;;;;3.10;1.20;;;;;;;;;;5031879;28;20041;-68
2021/01/02 06:20:45;;;;;;;3.43;1.00;;;;;;;;;;5032505;28;20120;-68
2021/01/02 06:23:14;;;;;;;2.40;0.87;;;;;;;;;;5032373;28;20181;-68
2021/01/02 06:25:40;;;;;;;1.90;0.90;;;;;;;;;;5032132;28;20427;-68
2021/01/02 06:28:08;;;;;;;3.50;0.90;;;;;;;;;;5031745;28;20378;-68
2021/01/02 06:30:34;;;;;;;2.30;1.00;;;;;;;;;;5032049;28;20394;-68
2021/01/02 06:33:00;;;;;;;3.40;1.00;;;;;;;;;;5031842;28;20053;-68
2021/01/02 06:35:26;;;;;;;2.00;0.87;;;;;;;;;;5031704;28;20017;-68
2021/01/02 06:37:52;;;;;;;2.47;1.07;;;;;;;;;;5031870;28;20048;-68
2021/01/02 06:40:18;;;;;;;2.07;0.90;;;;;;;;;;5031565;28;20032;-69
2021/01/02 06:42:52;;;;;;;2.07;0.90;;;;;;;;;;5031739;28;20033;-68
2021/01/02 06:45:38;;;;;;;1.27;0.80;;;;;;;;;;5032221;28;20018;-68
2021/01/02 06:48:13;;;;;;;3.30;0.70;;;;;;;;;;5032326;28;20493;-68
2021/01/02 06:50:43;;;;;;;2.00;0.70;;;;;;;;;;5032551;28;20055;-68
2021/01/02 06:53:30;;;;;;;3.87;0.53;;;;;;;;;;5031555;28;20108;-68
2021/01/02 06:56:07;;;;;;;1.13;0.83;;;;;;;;;;5031839;28;20116;-68
2021/01/02 06:58:36;;;;;;;1.10;0.60;;;;;;;;;;5032834;28;20071;-68
2021/01/02 07:01:06;;;;;;;1.70;0.57;;;;;;;;;;5032382;28;20104;-68
2021/01/02 07:03:47;;;;;;;2.23;0.90;;;;;;;;;;5031876;28;20482;-68
2021/01/02 07:06:19;;;;;;;1.47;0.80;;;;;;;;;;5032755;28;20055;-68
2021/01/02 07:08:45;;;;;;;2.10;1.20;;;;;;;;;;5032426;28;20022;-69
2021/01/02 07:11:20;;;;;;;3.30;1.17;;;;;;;;;;5032546;28;20030;-68
2021/01/02 07:13:46;;;;;;;2.27;1.30;;;;;;;;;;5031680;28;20037;-68
2021/01/02 07:16:31;;;;;;;2.90;1.23;;;;;;;;;;5032871;28;20413;-68
2021/01/02 07:18:57;;;;;;;2.87;1.50;;;;;;;;;;5032422;28;20060;-68
2021/01/02 07:21:36;;;;;;;2.27;1.20;;;;;;;;;;5032236;28;20540;-69
2021/01/02 07:24:21;;;;;;;2.87;0.90;;;;;;;;;;5032629;28;20084;-68
2021/01/02 07:26:47;;;;;;;1.77;0.97;;;;;;;;;;5032485;28;20025;-68
2021/01/02 07:29:17;;;;;;;2.63;0.83;;;;;;;;;;5032597;28;20029;-68
2021/01/02 07:31:43;;;;;;;2.47;1.20;;;;;;;;;;5032548;28;20014;-68
2021/01/02 07:34:17;;;;;;;1.07;0.63;;;;;;;;;;5033004;28;20017;-70
2021/01/02 07:36:43;;;;;;;2.73;0.80;;;;;;;;;;5036219;28;20061;-69
2021/01/02 07:39:09;;;;;;;0.73;0.50;;;;;;;;;;5033844;28;20083;-68
2021/01/02 07:41:36;;;;;;;2.17;0.60;;;;;;;;;;5033685;28;20473;-68
2021/01/02 07:44:04;;;;;;;1.17;0.70;;;;;;;;;;5034162;28;20117;-67
2021/01/02 07:46:31;;;;;;;1.17;0.77;;;;;;;;;;5035903;28;20030;-66
2021/01/02 07:48:57;;;;;;;2.67;0.80;;;;;;;;;;5035548;28;20037;-67
2021/01/02 07:51:23;;;;;;;1.73;0.90;;;;;;;;;;5035783;28;20025;-67
2021/01/02 07:53:53;;;;;;;2.37;0.80;;;;;;;;;;5034279;28;20099;-66
2021/01/02 07:56:34;;;;;;;0.80;0.70;;;;;;;;;;5035426;28;20028;-68
2021/01/02 07:59:19;;;;;;;0.80;0.70;;;;;;;;;;5035699;28;20394;-68
2021/01/02 08:01:52;;;;;;;1.73;0.70;;;;;;;;;;5036084;28;20034;-67
2021/01/02 08:04:19;;;;;;;1.13;0.70;;;;;;;;;;5036293;28;20053;-67
2021/01/02 08:06:46;;;;;;;2.00;0.53;;;;;;;;;;5036101;28;20408;-68
2021/01/02 08:09:12;;;;;;;1.37;0.60;;;;;;;;;;5035767;28;20037;-69
2021/01/02 08:11:38;;;;;;;1.00;0.60;;;;;;;;;;5034938;28;20032;-69
2021/01/02 08:14:04;;;;;;;1.10;0.70;;;;;;;;;;5036001;28;20091;-69
2021/01/02 08:16:30;;;;;;;1.63;1.00;;;;;;;;;;5035701;28;20029;-68
2021/01/02 08:19:06;;;;;;;2.00;1.30;;;;;;;;;;5033313;28;20076;-68
2021/01/02 08:21:38;;;;;;;1.73;1.07;;;;;;;;;;5033007;28;20030;-69
2021/01/02 08:24:12;;;;;;;3.05;1.00;;;;;;;;;;5034925;28;20474;-68
2021/01/02 08:26:38;;;;;;;1.90;0.90;;;;;;;;;;5035699;28;20022;-67
2021/01/02 08:29:04;;;;;;;1.33;0.90;;;;;;;;;;5035704;28;20026;-67
2021/01/02 08:31:32;;;;;;;1.73;1.20;;;;;;;;;;5035683;28;20029;-67
2021/01/02 08:34:00;;;;;;;4.03;1.30;;;;;;;;;;5035680;28;20071;-67
2021/01/02 08:36:26;;;;;;;2.70;1.10;;;;;;;;;;5035421;28;20026;-68
2021/01/02 08:38:56;;;;;;;1.73;1.20;;;;;;;;;;5035539;28;20071;-67
2021/01/02 08:41:22;;;;;;;3.73;1.27;;;;;;;;;;5035729;28;20139;-67
2021/01/02 08:43:48;;;;;;;2.90;1.00;;;;;;;;;;5035754;28;20482;-68
2021/01/02 08:46:14;;;;;;;1.97;1.07;;;;;;;;;;5035031;28;20066;-65
2021/01/02 08:48:46;;;;;;;2.70;1.37;;;;;;;;;;5034772;28;20097;-65
2021/01/02 08:51:22;;;;;;;2.75;1.20;;;;;;;;;;5034893;28;20064;-64
2021/01/02 08:53:48;;;;;;;4.23;1.47;;;;;;;;;;5035157;28;20053;-64
2021/01/02 08:56:21;;;;;;;2.40;1.33;;;;;;;;;;5035149;28;20116;-64
2021/01/02 08:58:47;;;;;;;3.27;1.50;;;;;;;;;;5035325;28;20030;-64
2021/01/02 09:01:13;;;;;;;3.57;1.40;;;;;;;;;;5035392;28;20381;-64
2021/01/02 09:03:39;;;;;;;2.40;1.30;;;;;;;;;;5034828;28;20041;-65
2021/01/02 09:06:27;;;;;;;3.70;1.30;;;;;;;;;;5035377;28;20032;-64
2021/01/02 09:09:00;;;;;;;1.63;1.30;;;;;;;;;;5035350;28;20210;-65
2021/01/02 09:11:27;;;;;;;1.70;1.10;;;;;;;;;;5034980;28;20025;-64
2021/01/02 09:14:08;;;;;;;2.17;1.20;;;;;;;;;;5035057;28;20025;-65
2021/01/02 09:16:34;;;;;;;2.00;1.40;;;;;;;;;;5034948;28;20029;-64
2021/01/02 09:19:00;;;;;;;1.90;1.30;;;;;;;;;;5034805;28;20041;-64
2021/01/02 09:21:27;;;;;;;2.90;1.50;;;;;;;;;;5034692;28;20030;-65
2021/01/02 09:23:53;;;;;;;2.20;1.33;;;;;;;;;;5034974;28;20390;-65
2021/01/02 09:26:22;;;;;;;2.70;1.50;;;;;;;;;;5034674;28;20196;-64
2021/01/02 09:28:48;;;;;;;4.17;1.37;;;;;;;;;;5034484;28;20521;-64
2021/01/02 09:31:15;;;;;;;3.00;1.67;;;;;;;;;;5034600;28;20052;-64
2021/01/02 09:33:41;;;;;;;12.23;2.87;;;;;;;;;;5034106;28;20026;-65
2021/01/02 09:36:07;;;;;;;3.17;1.63;;;;;;;;;;5032913;28;20024;-65
2021/01/02 09:38:33;;;;;;;3.73;1.40;;;;;;;;;;5033238;28;20474;-65
2021/01/02 09:40:59;;;;;;;4.20;1.20;;;;;;;;;;5033854;28;20013;-64
2021/01/02 09:43:27;;;;;;;4.73;1.70;;;;;;;;;;5034208;28;20079;-65
2021/01/02 09:45:53;;;;;;;2.17;1.10;;;;;;;;;;5033560;28;20022;-64
2021/01/02 09:48:19;;;;;;;2.23;1.20;;;;;;;;;;5034208;28;20100;-65
2021/01/02 09:50:46;;;;;;;3.07;1.30;;;;;;;;;;5034146;28;20038;-65
2021/01/02 09:53:12;;;;;;;5.30;1.77;;;;;;;;;;5034167;28;20024;-65
2021/01/02 09:55:39;;;;;;;3.90;1.30;;;;;;;;;;5033918;28;20087;-65
2021/01/02 09:58:05;;;;;;;3.67;1.40;;;;;;;;;;5033415;28;20091;-65
2021/01/02 10:00:31;;;;;;;3.87;1.40;;;;;;;;;;5033963;28;20022;-65
2021/01/02 10:02:58;;;;;;;3.80;1.60;;;;;;;;;;5033996;28;20041;-65
2021/01/02 10:05:27;;;;;;;2.37;1.13;;;;;;;;;;5033813;28;20482;-64
2021/01/02 10:07:53;;;;;;;3.93;1.37;;;;;;;;;;5033754;28;20496;-65
2021/01/02 10:10:20;;;;;;;5.40;1.40;;;;;;;;;;5033638;28;20059;-64
2021/01/02 10:12:47;;;;;;;2.13;1.13;;;;;;;;;;5033838;28;20482;-64
2021/01/02 10:15:14;;;;;;;4.57;1.50;;;;;;;;;;5033820;28;20018;-64
2021/01/02 10:17:40;;;;;;;5.13;1.80;;;;;;;;;;5033454;28;20049;-64
2021/01/02 10:20:06;;;;;;;6.87;1.50;;;;;;;;;;5033621;28;20463;-64
2021/01/02 10:22:33;;;;;;;3.33;1.60;;;;;;;;;;5033337;28;20036;-64
2021/01/02 10:24:59;;;;;;;3.63;1.20;;;;;;;;;;5033428;28;20025;-64
2021/01/02 10:27:25;;;;;;;4.13;1.50;;;;;;;;;;5033635;28;20394;-65
2021/01/02 10:29:52;;;;;;;2.93;1.40;;;;;;;;;;5033677;28;20049;-64
2021/01/02 10:32:19;;;;;;;3.73;1.40;;;;;;;;;;5033666;28;20017;-64
2021/01/02 10:34:45;;;;;;;2.77;1.40;;;;;;;;;;5033532;28;20080;-64
2021/01/02 10:37:12;;;;;;;2.97;1.50;;;;;;;;;;5033521;28;20040;-64
2021/01/02 10:39:39;;;;;;;3.23;1.83;;;;;;;;;;5033443;28;20025;-64
2021/01/02 10:42:05;;;;;;;5.10;1.70;;;;;;;;;;5033395;28;20437;-65
2021/01/02 10:44:31;;;;;;;4.43;1.77;;;;;;;;;;5033441;28;20437;-64
2021/01/02 10:46:59;;;;;;;4.33;1.93;;;;;;;;;;5033270;28;20022;-64
2021/01/02 10:49:25;;;;;;;3.10;1.40;;;;;;;;;;5033385;28;20049;-64
2021/01/02 10:51:51;;;;;;;3.27;1.40;;;;;;;;;;5033111;28;20032;-67
2021/01/02 10:54:17;;;;;;;3.33;1.60;;;;;;;;;;5033324;28;20029;-65
2021/01/02 10:56:46;;;;;;;3.57;1.83;;;;;;;;;;5033041;28;20399;-65
2021/01/02 10:59:14;;;;;;;4.97;1.87;;;;;;;;;;5033176;28;20394;-65
2021/01/02 11:01:41;;;;;;;5.67;2.30;;;;;;;;;;5033079;28;20048;-65
2021/01/02 11:04:08;;;;;;;4.77;2.20;;;;;;;;;;5032053;28;20022;-66
2021/01/02 11:06:34;;;;;;;3.77;1.77;;;;;;;;;;5032381;28;20017;-65
2021/01/02 11:09:00;;;;;;;3.63;1.73;;;;;;;;;;5030905;28;20491;-65
2021/01/02 11:11:26;;;;;;;3.07;1.60;;;;;;;;;;5032333;28;20445;-65
2021/01/02 11:13:52;;;;;;;4.17;1.60;;;;;;;;;;5043106;28;20025;-66
2021/01/02 11:16:18;;;;;;;2.70;1.33;;;;;;;;;;5052352;28;20421;-65
2021/01/02 11:18:44;;;;;;;2.97;1.67;;;;;;;;;;5052375;28;20413;-65
2021/01/02 11:21:10;;;;;;;3.17;1.30;;;;;;;;;;5052457;28;20389;-65
2021/01/02 11:23:37;;;;;;;5.83;1.27;;;;;;;;;;5051992;28;20499;-65
2021/01/02 11:26:08;;;;;;;3.60;1.37;;;;;;;;;;5052254;28;20067;-65
2021/01/02 11:28:35;;;;;;;3.27;1.60;;;;;;;;;;5052627;28;20495;-66
2021/01/02 11:31:01;;;;;;;2.50;1.30;;;;;;;;;;5052015;28;20105;-65
2021/01/02 11:33:27;;;;;;;4.13;1.37;;;;;;;;;;5052351;28;20108;-66
2021/01/02 11:35:53;;;;;;;3.33;1.37;;;;;;;;;;5052571;28;20383;-66
2021/01/02 11:38:19;;;;;;;4.43;1.40;;;;;;;;;;5052175;28;20048;-65
2021/01/02 11:40:45;;;;;;;2.13;1.00;;;;;;;;;;5052477;28;20021;-66
2021/01/02 11:43:11;;;;;;;3.23;1.40;;;;;;;;;;5051956;28;20036;-66
2021/01/02 11:45:37;;;;;;;3.00;1.33;;;;;;;;;;5049554;28;20013;-65
2021/01/02 11:48:03;;;;;;;2.80;1.10;;;;;;;;;;5050082;28;20420;-65
2021/01/02 11:50:29;;;;;;;1.90;1.30;;;;;;;;;;5050458;28;20381;-65
2021/01/02 11:52:55;;;;;;;4.00;1.37;;;;;;;;;;5036309;28;20036;-66
2021/01/02 11:55:21;;;;;;;1.80;1.20;;;;;;;;;;5032141;28;20018;-65
2021/01/02 11:57:47;;;;;;;1.83;1.10;;;;;;;;;;5031951;28;20378;-65
2021/01/02 12:00:13;;;;;;;3.40;1.20;;;;;;;;;;5032109;28;20031;-65
2021/01/02 12:02:41;;;;;;;1.97;1.30;;;;;;;;;;5032174;28;20029;-65
2021/01/02 12:05:08;;;;;;;4.13;1.57;;;;;;;;;;5032242;28;20022;-65
2021/01/02 12:07:35;;;;;;;2.80;1.40;;;;;;;;;;5031912;28;20262;-65
2021/01/02 12:10:01;;;;;;;3.70;1.70;;;;;;;;;;5032397;28;20089;-65
2021/01/02 12:12:27;;;;;;;1.97;1.20;;;;;;;;;;5031894;28;20021;-65
2021/01/02 12:14:53;;;;;;;1.20;0.80;;;;;;;;;;5031822;28;20463;-65
2021/01/02 12:17:19;;;;;;;1.80;0.80;;;;;;;;;;5031907;28;20091;-65
2021/01/02 12:19:46;;;;;;;2.00;0.90;;;;;;;;;;5032128;28;20025;-65
2021/01/02 12:22:12;;;;;;;1.83;1.00;;;;;;;;;;5035863;28;20101;-64
2021/01/02 12:24:38;;;;;;;1.70;1.10;;;;;;;;;;5035759;28;20017;-65
2021/01/02 12:27:06;;;;;;;3.47;1.10;;;;;;;;;;5039019;28;20025;-65
2021/01/02 12:29:32;;;;;;;1.70;1.10;;;;;;;;;;5054810;28;20028;-65
2021/01/02 12:32:02;;;;;;;1.37;0.80;;;;;;;;;;5055084;28;20024;-66
2021/01/02 12:34:30;;;;;;;2.40;1.10;;;;;;;;;;5054956;28;20412;-66
2021/01/02 12:36:56;;;;;;;4.07;1.30;;;;;;;;;;5054762;28;20488;-66
2021/01/02 12:39:24;;;;;;;2.73;1.27;;;;;;;;;;5054770;28;20104;-66
2021/01/02 12:41:51;;;;;;;3.77;1.57;;;;;;;;;;5054599;28;20029;-65
2021/01/02 12:44:17;;;;;;;4.70;1.60;;;;;;;;;;5054684;28;20032;-65
2021/01/02 12:46:47;;;;;;;2.47;1.40;;;;;;;;;;5054407;28;20028;-65
2021/01/02 12:49:18;;;;;;;2.47;1.60;;;;;;;;;;5054450;28;20037;-65
2021/01/02 12:51:46;;;;;;;2.73;1.07;;;;;;;;;;5054708;28;20025;-65
2021/01/02 12:54:12;;;;;;;2.40;1.53;;;;;;;;;;5054446;28;20445;-65
2021/01/02 12:56:45;;;;;;;4.30;2.57;;;;;;;;;;5053992;28;20028;-65
2021/01/02 12:59:12;;;;;;;13.53;7.17;;;;;;;;;;5054509;28;20091;-65
2021/01/02 13:01:41;;;;;;;4.47;2.37;;;;;;;;;;5053557;28;20021;-65
2021/01/02 13:04:08;;;;;;;2.27;1.20;;;;;;;;;;5054011;28;20546;-66
2021/01/02 13:06:34;;;;;;;18.37;10.57;;;;;;;;;;5053121;28;20048;-65
2021/01/02 13:09:00;;;;;;;29.67;18.10;;;;;;;;;;5052562;28;20029;-66
2021/01/02 13:11:27;;;;;;;5.90;4.50;;;;;;;;;;5052704;28;20017;-65
2021/01/02 13:13:53;;;;;;;7.73;4.53;;;;;;;;;;5052922;28;20100;-66
2021/01/02 13:16:19;;;;;;;9.83;7.23;;;;;;;;;;5051374;28;20056;-65
2021/01/02 13:18:45;;;;;;;6.93;4.33;;;;;;;;;;5052740;28;20553;-65
2021/01/02 13:21:11;;;;;;;6.87;4.90;;;;;;;;;;5054100;28;20025;-66
2021/01/02 13:23:38;;;;;;;19.33;11.70;;;;;;;;;;5053705;28;20029;-65
2021/01/02 13:26:04;;;;;;;26.53;15.20;;;;;;;;;;5053118;28;20029;-65
2021/01/02 13:28:30;;;;;;;5.00;3.17;;;;;;;;;;5051741;28;20029;-66
2021/01/02 13:30:57;;;;;;;4.33;2.30;;;;;;;;;;5050469;28;20099;-65
2021/01/02 13:33:23;;;;;;;12.10;8.23;;;;;;;;;;5050757;28;20029;-64
2021/01/02 13:35:49;;;;;;;5.37;3.60;;;;;;;;;;5053794;28;20083;-65
2021/01/02 13:38:15;;;;;;;8.03;5.03;;;;;;;;;;5054575;28;20029;-65
2021/01/02 13:40:41;;;;;;;7.37;4.87;;;;;;;;;;5053587;28;20021;-65
2021/01/02 13:43:07;;;;;;;6.67;5.33;;;;;;;;;;5050814;28;20498;-65
2021/01/02 13:45:33;;;;;;;8.67;5.50;;;;;;;;;;5052205;28;20051;-65
2021/01/02 13:47:59;;;;;;;7.17;4.77;;;;;;;;;;5053117;28;20029;-66
2021/01/02 13:50:26;;;;;;;8.10;5.90;;;;;;;;;;5051556;28;20100;-66
2021/01/02 13:52:52;;;;;;;6.23;4.33;;;;;;;;;;5052307;28;20068;-65
2021/01/02 13:55:18;;;;;;;23.00;16.77;;;;;;;;;;5048523;28;20478;-66
2021/01/02 13:57:44;;;;;;;5.57;3.63;;;;;;;;;;5036981;28;20033;-65
2021/01/02 14:00:11;;;;;;;2.83;1.90;;;;;;;;;;5040845;28;20067;-65
2021/01/02 14:02:37;;;;;;;4.73;2.20;;;;;;;;;;5033494;28;20390;-65
2021/01/02 14:05:03;;;;;;;3.70;2.63;;;;;;;;;;5033257;28;20386;-65
2021/01/02 14:07:30;;;;;;;6.53;2.87;;;;;;;;;;5032293;28;20556;-65
2021/01/02 14:09:56;;;;;;;6.00;4.07;;;;;;;;;;5032163;28;20024;-65
2021/01/02 14:12:22;;;;;;;12.50;9.00;;;;;;;;;;5032040;28;20022;-66
2021/01/02 14:14:49;;;;;;;7.20;5.80;;;;;;;;;;5032702;28;20578;-65
2021/01/02 14:17:16;;;;;;;4.77;3.53;;;;;;;;;;5041337;28;20516;-64
2021/01/02 14:19:42;;;;;;;4.90;3.20;;;;;;;;;;5051388;28;20029;-66
2021/01/02 14:22:08;;;;;;;3.63;2.70;;;;;;;;;;5052262;28;20060;-65
2021/01/02 14:24:34;;;;;;;2.73;1.70;;;;;;;;;;5052183;28;20028;-65
2021/01/02 14:27:01;;;;;;;3.20;2.10;;;;;;;;;;5052914;28;20100;-65
2021/01/02 14:29:28;;;;;;;3.73;2.40;;;;;;;;;;5052992;28;20052;-66
2021/01/02 14:31:54;;;;;;;4.07;2.63;;;;;;;;;;5052506;28;20025;-65
2021/01/02 14:34:22;;;;;;;3.90;2.40;;;;;;;;;;5052816;28;20099;-65
2021/01/02 14:36:52;;;;;;;4.50;2.77;;;;;;;;;;5052866;28;20070;-65
2021/01/02 14:39:18;;;;;;;4.40;3.00;;;;;;;;;;5052581;28;20389;-65
2021/01/02 14:41:44;;;;;;;5.87;4.37;;;;;;;;;;5052814;28;20029;-65
2021/01/02 14:44:10;;;;;;;3.80;2.87;;;;;;;;;;5052357;28;20505;-66
2021/01/02 14:46:37;;;;;;;5.73;4.07;;;;;;;;;;5051958;28;20028;-65
2021/01/02 14:49:04;;;;;;;7.47;4.30;;;;;;;;;;5051993;28;20029;-66
2021/01/02 14:51:38;;;;;;;3.33;2.30;;;;;;;;;;5051199;28;20029;-66